sensor_id;sensor_type;location;lat;lon;timestamp;temperature;humidity
3086;DHT22;52812;48.960;9.108;2022-10-17T00:00:39;12.20;99.90
3086;DHT22;52812;48.960;9.108;2022-10-17T00:03:04;12.20;99.90
3086;DHT22;52812;48.960;9.108;2022-10-17T00:05:30;12.10;99.90
3086;DHT22;52812;48.960;9.108;2022-10-17T00:07:55;12.10;99.90
3086;DHT22;52812;48.960;9.108;2022-10-17T00:10:22;12.10;99.90
3086;DHT22;52812;48.960;9.108;2022-10-17T00:12:47;12.00;99.90
3086;DHT22;52812;48.960;9.108;2022-10-17T00:15:17;12.00;99.90
3086;DHT22;52812;48.960;9.108;2022-10-17T00:17:42;11.90;99.90
3086;DHT22;52812;48.960;9.108;2022-10-17T00:20:08;11.90;99.90
3086;DHT22;52812;48.960;9.108;2022-10-17T00:22:34;11.90;99.90
3086;DHT22;52812;48.960;9.108;2022-10-17T00:25:00;12.00;99.90
3086;DHT22;52812;48.960;9.108;2022-10-17T00:27:25;12.10;99.90
3086;DHT22;52812;48.960;9.108;2022-10-17T00:29:51;12.10;99.90
3086;DHT22;52812;48.960;9.108;2022-10-17T00:32:18;12.00;99.90
3086;DHT22;52812;48.960;9.108;2022-10-17T00:34:43;12.10;99.90
3086;DHT22;52812;48.960;9.108;2022-10-17T00:37:09;12.10;99.90
3086;DHT22;52812;48.960;9.108;2022-10-17T00:39:34;12.00;99.90
3086;DHT22;52812;48.960;9.108;2022-10-17T00:42:00;11.80;99.90
3086;DHT22;52812;48.960;9.108;2022-10-17T00:46:56;11.80;99.90
3086;DHT22;52812;48.960;9.108;2022-10-17T00:49:23;11.70;99.90
3086;DHT22;52812;48.960;9.108;2022-10-17T00:51:56;11.80;99.90
3086;DHT22;52812;48.960;9.108;2022-10-17T00:54:32;11.80;99.90
3086;DHT22;52812;48.960;9.108;2022-10-17T00:56:59;11.80;99.90
3086;DHT22;52812;48.960;9.108;2022-10-17T00:59:25;11.80;99.90
3086;DHT22;52812;48.960;9.108;2022-10-17T01:02:15;11.70;99.90
3086;DHT22;52812;48.960;9.108;2022-10-17T01:04:44;11.70;99.90
3086;DHT22;52812;48.960;9.108;2022-10-17T01:07:10;11.70;99.90
3086;DHT22;52812;48.960;9.108;2022-10-17T01:09:37;11.60;99.90
3086;DHT22;52812;48.960;9.108;2022-10-17T01:15:13;11.60;99.90
3086;DHT22;52812;48.960;9.108;2022-10-17T01:23:29;11.70;99.90
3086;DHT22;52812;48.960;9.108;2022-10-17T01:31:35;12.20;99.90
3086;DHT22;52812;48.960;9.108;2022-10-17T01:34:13;12.20;99.90
3086;DHT22;52812;48.960;9.108;2022-10-17T01:37:00;12.30;99.90
3086;DHT22;52812;48.960;9.108;2022-10-17T01:39:52;12.20;99.90
3086;DHT22;52812;48.960;9.108;2022-10-17T01:42:33;12.10;99.90
3086;DHT22;52812;48.960;9.108;2022-10-17T01:45:23;12.00;99.90
3086;DHT22;52812;48.960;9.108;2022-10-17T01:47:51;12.10;99.90
3086;DHT22;52812;48.960;9.108;2022-10-17T01:50:27;12.10;99.90
3086;DHT22;52812;48.960;9.108;2022-10-17T01:53:00;12.10;99.90
3086;DHT22;52812;48.960;9.108;2022-10-17T01:55:38;12.20;99.90
3086;DHT22;52812;48.960;9.108;2022-10-17T01:58:09;12.20;99.90
3086;DHT22;52812;48.960;9.108;2022-10-17T02:00:37;12.30;99.90
3086;DHT22;52812;48.960;9.108;2022-10-17T02:03:06;12.30;99.90
3086;DHT22;52812;48.960;9.108;2022-10-17T02:05:39;12.30;99.90
3086;DHT22;52812;48.960;9.108;2022-10-17T02:08:05;12.30;99.90
3086;DHT22;52812;48.960;9.108;2022-10-17T02:10:41;12.30;99.90
3086;DHT22;52812;48.960;9.108;2022-10-17T02:13:35;12.20;99.90
3086;DHT22;52812;48.960;9.108;2022-10-17T02:24:00;12.10;99.90
3086;DHT22;52812;48.960;9.108;2022-10-17T02:26:46;12.10;99.90
3086;DHT22;52812;48.960;9.108;2022-10-17T02:29:19;12.10;99.90
3086;DHT22;52812;48.960;9.108;2022-10-17T02:31:58;12.00;99.90
3086;DHT22;52812;48.960;9.108;2022-10-17T02:34:28;12.10;99.90
3086;DHT22;52812;48.960;9.108;2022-10-17T02:36:58;12.10;99.90
3086;DHT22;52812;48.960;9.108;2022-10-17T02:39:26;12.10;99.90
3086;DHT22;52812;48.960;9.108;2022-10-17T02:41:54;12.00;99.90
3086;DHT22;52812;48.960;9.108;2022-10-17T02:44:21;12.10;99.90
3086;DHT22;52812;48.960;9.108;2022-10-17T02:46:51;12.10;99.90
3086;DHT22;52812;48.960;9.108;2022-10-17T02:49:27;12.10;99.90
3086;DHT22;52812;48.960;9.108;2022-10-17T02:52:00;12.10;99.90
3086;DHT22;52812;48.960;9.108;2022-10-17T02:54:38;12.10;99.90
3086;DHT22;52812;48.960;9.108;2022-10-17T02:57:11;12.00;99.90
3086;DHT22;52812;48.960;9.108;2022-10-17T02:59:39;11.90;99.90
3086;DHT22;52812;48.960;9.108;2022-10-17T03:02:06;11.80;99.90
3086;DHT22;52812;48.960;9.108;2022-10-17T03:04:33;11.80;99.90
3086;DHT22;52812;48.960;9.108;2022-10-17T03:06:59;11.70;99.90
3086;DHT22;52812;48.960;9.108;2022-10-17T03:09:24;11.70;99.90
3086;DHT22;52812;48.960;9.108;2022-10-17T03:11:50;11.80;99.90
3086;DHT22;52812;48.960;9.108;2022-10-17T03:14:16;11.70;99.90
3086;DHT22;52812;48.960;9.108;2022-10-17T03:16:41;11.80;99.90
3086;DHT22;52812;48.960;9.108;2022-10-17T03:19:07;11.80;99.90
3086;DHT22;52812;48.960;9.108;2022-10-17T03:21:33;11.70;99.90
3086;DHT22;52812;48.960;9.108;2022-10-17T03:24:01;11.60;99.90
3086;DHT22;52812;48.960;9.108;2022-10-17T03:26:26;11.50;99.90
3086;DHT22;52812;48.960;9.108;2022-10-17T03:28:53;11.50;99.90
3086;DHT22;52812;48.960;9.108;2022-10-17T03:31:19;11.40;99.90
3086;DHT22;52812;48.960;9.108;2022-10-17T03:33:45;11.30;99.90
3086;DHT22;52812;48.960;9.108;2022-10-17T03:36:13;11.20;99.90
3086;DHT22;52812;48.960;9.108;2022-10-17T03:38:39;11.10;99.90
3086;DHT22;52812;48.960;9.108;2022-10-17T03:41:05;11.10;99.90
3086;DHT22;52812;48.960;9.108;2022-10-17T03:43:31;11.00;99.90
3086;DHT22;52812;48.960;9.108;2022-10-17T03:45:58;10.90;99.90
3086;DHT22;52812;48.960;9.108;2022-10-17T03:48:25;10.90;99.90
3086;DHT22;52812;48.960;9.108;2022-10-17T03:50:51;11.00;99.90
3086;DHT22;52812;48.960;9.108;2022-10-17T03:53:16;11.10;99.90
3086;DHT22;52812;48.960;9.108;2022-10-17T03:55:42;11.20;99.90
3086;DHT22;52812;48.960;9.108;2022-10-17T03:58:07;11.20;99.90
3086;DHT22;52812;48.960;9.108;2022-10-17T04:00:35;11.20;99.90
3086;DHT22;52812;48.960;9.108;2022-10-17T04:03:00;11.10;99.90
3086;DHT22;52812;48.960;9.108;2022-10-17T04:05:26;11.10;99.90
3086;DHT22;52812;48.960;9.108;2022-10-17T04:07:51;11.10;99.90
3086;DHT22;52812;48.960;9.108;2022-10-17T04:10:17;11.20;99.90
3086;DHT22;52812;48.960;9.108;2022-10-17T04:12:43;11.20;99.90
3086;DHT22;52812;48.960;9.108;2022-10-17T04:15:09;11.30;99.90
3086;DHT22;52812;48.960;9.108;2022-10-17T04:17:34;11.30;99.90
3086;DHT22;52812;48.960;9.108;2022-10-17T04:20:00;11.40;99.90
3086;DHT22;52812;48.960;9.108;2022-10-17T04:22:26;11.50;99.90
3086;DHT22;52812;48.960;9.108;2022-10-17T04:24:52;11.50;99.90
3086;DHT22;52812;48.960;9.108;2022-10-17T04:27:17;11.50;99.90
3086;DHT22;52812;48.960;9.108;2022-10-17T04:29:43;11.50;99.90
3086;DHT22;52812;48.960;9.108;2022-10-17T04:32:08;11.40;99.90
3086;DHT22;52812;48.960;9.108;2022-10-17T04:34:34;11.30;99.90
3086;DHT22;52812;48.960;9.108;2022-10-17T04:36:59;11.30;99.90
3086;DHT22;52812;48.960;9.108;2022-10-17T04:39:25;11.20;99.90
3086;DHT22;52812;48.960;9.108;2022-10-17T04:41:51;11.00;99.90
3086;DHT22;52812;48.960;9.108;2022-10-17T04:44:16;11.00;99.90
3086;DHT22;52812;48.960;9.108;2022-10-17T04:46:42;11.00;99.90
3086;DHT22;52812;48.960;9.108;2022-10-17T04:49:08;10.90;99.90
3086;DHT22;52812;48.960;9.108;2022-10-17T04:51:34;10.90;99.90
3086;DHT22;52812;48.960;9.108;2022-10-17T04:53:59;10.90;99.90
3086;DHT22;52812;48.960;9.108;2022-10-17T04:56:25;11.00;99.90
3086;DHT22;52812;48.960;9.108;2022-10-17T04:58:51;11.00;99.90
3086;DHT22;52812;48.960;9.108;2022-10-17T05:01:18;11.10;99.90
3086;DHT22;52812;48.960;9.108;2022-10-17T05:03:45;11.10;99.90
3086;DHT22;52812;48.960;9.108;2022-10-17T05:06:13;11.20;99.90
3086;DHT22;52812;48.960;9.108;2022-10-17T05:08:39;11.30;99.90
3086;DHT22;52812;48.960;9.108;2022-10-17T05:11:34;11.30;99.90
3086;DHT22;52812;48.960;9.108;2022-10-17T05:14:00;11.40;99.90
3086;DHT22;52812;48.960;9.108;2022-10-17T05:16:27;11.40;99.90
3086;DHT22;52812;48.960;9.108;2022-10-17T05:18:55;11.30;99.90
3086;DHT22;52812;48.960;9.108;2022-10-17T05:21:22;11.30;99.90
3086;DHT22;52812;48.960;9.108;2022-10-17T05:23:49;11.20;99.90
3086;DHT22;52812;48.960;9.108;2022-10-17T05:26:15;11.10;99.90
3086;DHT22;52812;48.960;9.108;2022-10-17T05:28:40;11.00;99.90
3086;DHT22;52812;48.960;9.108;2022-10-17T05:31:07;10.90;99.90
3086;DHT22;52812;48.960;9.108;2022-10-17T05:33:34;10.90;99.90
3086;DHT22;52812;48.960;9.108;2022-10-17T05:36:00;10.80;99.90
3086;DHT22;52812;48.960;9.108;2022-10-17T05:38:26;10.90;99.90
3086;DHT22;52812;48.960;9.108;2022-10-17T05:41:02;10.80;99.90
3086;DHT22;52812;48.960;9.108;2022-10-17T05:43:29;11.00;99.90
3086;DHT22;52812;48.960;9.108;2022-10-17T05:45:55;11.20;99.90
3086;DHT22;52812;48.960;9.108;2022-10-17T05:48:21;11.20;99.90
3086;DHT22;52812;48.960;9.108;2022-10-17T05:50:47;11.30;99.90
3086;DHT22;52812;48.960;9.108;2022-10-17T05:53:13;11.20;99.90
3086;DHT22;52812;48.960;9.108;2022-10-17T05:55:39;11.30;99.90
3086;DHT22;52812;48.960;9.108;2022-10-17T05:58:07;11.30;99.90
3086;DHT22;52812;48.960;9.108;2022-10-17T06:00:33;11.30;99.90
3086;DHT22;52812;48.960;9.108;2022-10-17T06:02:58;11.20;99.90
3086;DHT22;52812;48.960;9.108;2022-10-17T06:05:24;11.30;99.90
3086;DHT22;52812;48.960;9.108;2022-10-17T06:07:49;11.40;99.90
3086;DHT22;52812;48.960;9.108;2022-10-17T06:10:17;11.40;99.90
3086;DHT22;52812;48.960;9.108;2022-10-17T06:12:43;11.40;99.90
3086;DHT22;52812;48.960;9.108;2022-10-17T06:15:10;11.60;99.90
3086;DHT22;52812;48.960;9.108;2022-10-17T06:17:36;11.50;99.90
3086;DHT22;52812;48.960;9.108;2022-10-17T06:20:02;11.70;99.90
3086;DHT22;52812;48.960;9.108;2022-10-17T06:22:28;11.80;99.90
3086;DHT22;52812;48.960;9.108;2022-10-17T06:24:53;11.80;99.90
3086;DHT22;52812;48.960;9.108;2022-10-17T06:27:19;11.90;99.90
3086;DHT22;52812;48.960;9.108;2022-10-17T06:29:46;11.90;99.90
3086;DHT22;52812;48.960;9.108;2022-10-17T06:32:12;11.70;99.90
3086;DHT22;52812;48.960;9.108;2022-10-17T06:34:38;11.70;99.90
3086;DHT22;52812;48.960;9.108;2022-10-17T06:37:03;11.80;99.90
3086;DHT22;52812;48.960;9.108;2022-10-17T06:39:29;12.00;99.90
3086;DHT22;52812;48.960;9.108;2022-10-17T06:42:02;12.00;99.90
3086;DHT22;52812;48.960;9.108;2022-10-17T06:44:28;12.10;99.90
3086;DHT22;52812;48.960;9.108;2022-10-17T06:46:59;12.20;99.90
3086;DHT22;52812;48.960;9.108;2022-10-17T06:49:45;12.20;99.90
3086;DHT22;52812;48.960;9.108;2022-10-17T06:52:13;12.50;99.90
3086;DHT22;52812;48.960;9.108;2022-10-17T06:54:41;12.80;99.90
3086;DHT22;52812;48.960;9.108;2022-10-17T06:57:07;13.10;99.90
3086;DHT22;52812;48.960;9.108;2022-10-17T06:59:33;13.30;99.90
3086;DHT22;52812;48.960;9.108;2022-10-17T07:02:00;13.50;99.90
3086;DHT22;52812;48.960;9.108;2022-10-17T07:04:26;13.80;99.90
3086;DHT22;52812;48.960;9.108;2022-10-17T07:06:52;14.10;99.90
3086;DHT22;52812;48.960;9.108;2022-10-17T07:09:19;14.30;99.90
3086;DHT22;52812;48.960;9.108;2022-10-17T07:11:44;14.30;99.90
3086;DHT22;52812;48.960;9.108;2022-10-17T07:14:10;14.60;99.90
3086;DHT22;52812;48.960;9.108;2022-10-17T07:16:36;14.80;99.90
3086;DHT22;52812;48.960;9.108;2022-10-17T07:19:01;14.90;99.90
3086;DHT22;52812;48.960;9.108;2022-10-17T07:21:27;15.20;99.90
3086;DHT22;52812;48.960;9.108;2022-10-17T07:23:53;15.10;99.90
3086;DHT22;52812;48.960;9.108;2022-10-17T07:26:18;15.10;99.90
3086;DHT22;52812;48.960;9.108;2022-10-17T07:28:45;15.00;99.90
3086;DHT22;52812;48.960;9.108;2022-10-17T07:31:14;14.90;99.90
3086;DHT22;52812;48.960;9.108;2022-10-17T07:33:40;14.80;99.90
3086;DHT22;52812;48.960;9.108;2022-10-17T07:36:06;14.70;99.90
3086;DHT22;52812;48.960;9.108;2022-10-17T07:38:32;14.80;99.90
3086;DHT22;52812;48.960;9.108;2022-10-17T07:41:00;14.80;99.90
3086;DHT22;52812;48.960;9.108;2022-10-17T07:43:27;14.90;99.90
3086;DHT22;52812;48.960;9.108;2022-10-17T07:45:53;15.00;99.90
3086;DHT22;52812;48.960;9.108;2022-10-17T07:48:21;15.10;99.90
3086;DHT22;52812;48.960;9.108;2022-10-17T07:50:47;15.20;99.90
3086;DHT22;52812;48.960;9.108;2022-10-17T07:53:13;15.30;99.90
3086;DHT22;52812;48.960;9.108;2022-10-17T07:55:40;15.20;99.90
3086;DHT22;52812;48.960;9.108;2022-10-17T07:58:06;15.30;99.90
3086;DHT22;52812;48.960;9.108;2022-10-17T08:00:32;15.30;99.90
3086;DHT22;52812;48.960;9.108;2022-10-17T08:02:58;15.50;99.90
3086;DHT22;52812;48.960;9.108;2022-10-17T08:05:23;15.60;99.90
3086;DHT22;52812;48.960;9.108;2022-10-17T08:07:52;15.60;99.90
3086;DHT22;52812;48.960;9.108;2022-10-17T08:10:17;15.70;99.90
3086;DHT22;52812;48.960;9.108;2022-10-17T08:12:43;15.90;99.90
3086;DHT22;52812;48.960;9.108;2022-10-17T08:15:09;16.10;99.90
3086;DHT22;52812;48.960;9.108;2022-10-17T08:17:36;16.20;99.90
3086;DHT22;52812;48.960;9.108;2022-10-17T08:20:05;16.30;99.90
3086;DHT22;52812;48.960;9.108;2022-10-17T08:22:31;16.40;99.90
3086;DHT22;52812;48.960;9.108;2022-10-17T08:24:57;16.50;99.90
3086;DHT22;52812;48.960;9.108;2022-10-17T08:27:23;16.60;99.90
3086;DHT22;52812;48.960;9.108;2022-10-17T08:29:50;16.80;99.90
3086;DHT22;52812;48.960;9.108;2022-10-17T08:32:23;16.80;99.90
3086;DHT22;52812;48.960;9.108;2022-10-17T08:34:51;16.90;99.90
3086;DHT22;52812;48.960;9.108;2022-10-17T08:37:16;17.00;99.90
3086;DHT22;52812;48.960;9.108;2022-10-17T08:39:42;17.00;99.90
3086;DHT22;52812;48.960;9.108;2022-10-17T08:45:45;17.30;99.90
3086;DHT22;52812;48.960;9.108;2022-10-17T08:48:07;17.40;99.90
3086;DHT22;52812;48.960;9.108;2022-10-17T08:50:37;17.40;99.90
3086;DHT22;52812;48.960;9.108;2022-10-17T08:53:18;17.40;99.90
3086;DHT22;52812;48.960;9.108;2022-10-17T08:55:47;17.30;99.90
3086;DHT22;52812;48.960;9.108;2022-10-17T08:58:21;17.30;99.90
3086;DHT22;52812;48.960;9.108;2022-10-17T09:06:23;17.40;99.90
3086;DHT22;52812;48.960;9.108;2022-10-17T09:09:15;17.60;99.90
3086;DHT22;52812;48.960;9.108;2022-10-17T09:12:01;17.70;99.90
3086;DHT22;52812;48.960;9.108;2022-10-17T09:14:44;17.80;99.90
3086;DHT22;52812;48.960;9.108;2022-10-17T09:20:49;18.10;99.90
3086;DHT22;52812;48.960;9.108;2022-10-17T09:23:28;18.20;99.90
3086;DHT22;52812;48.960;9.108;2022-10-17T09:25:58;18.30;99.90
3086;DHT22;52812;48.960;9.108;2022-10-17T09:33:38;18.50;99.90
3086;DHT22;52812;48.960;9.108;2022-10-17T09:36:30;18.60;99.90
3086;DHT22;52812;48.960;9.108;2022-10-17T09:39:12;18.70;99.90
3086;DHT22;52812;48.960;9.108;2022-10-17T09:41:40;18.80;99.90
3086;DHT22;52812;48.960;9.108;2022-10-17T09:44:28;18.90;99.90
3086;DHT22;52812;48.960;9.108;2022-10-17T09:47:18;19.10;99.90
3086;DHT22;52812;48.960;9.108;2022-10-17T09:49:46;19.40;99.90
3086;DHT22;52812;48.960;9.108;2022-10-17T09:52:38;19.50;99.90
3086;DHT22;52812;48.960;9.108;2022-10-17T09:55:21;19.60;99.90
3086;DHT22;52812;48.960;9.108;2022-10-17T09:58:02;19.80;99.90
3086;DHT22;52812;48.960;9.108;2022-10-17T10:00:34;19.70;99.90
3086;DHT22;52812;48.960;9.108;2022-10-17T10:03:27;19.70;99.90
3086;DHT22;52812;48.960;9.108;2022-10-17T10:06:13;19.70;99.90
3086;DHT22;52812;48.960;9.108;2022-10-17T10:08:53;19.90;99.90
3086;DHT22;52812;48.960;9.108;2022-10-17T10:11:24;20.10;99.90
3086;DHT22;52812;48.960;9.108;2022-10-17T10:13:51;20.40;99.90
3086;DHT22;52812;48.960;9.108;2022-10-17T10:16:20;20.60;99.90
3086;DHT22;52812;48.960;9.108;2022-10-17T10:18:47;20.80;99.90
3086;DHT22;52812;48.960;9.108;2022-10-17T10:21:30;21.00;99.90
3086;DHT22;52812;48.960;9.108;2022-10-17T10:26:45;21.10;99.90
3086;DHT22;52812;48.960;9.108;2022-10-17T10:29:21;21.30;99.90
3086;DHT22;52812;48.960;9.108;2022-10-17T10:31:48;21.30;99.90
3086;DHT22;52812;48.960;9.108;2022-10-17T10:34:27;21.30;99.90
3086;DHT22;52812;48.960;9.108;2022-10-17T10:36:58;21.40;99.90
3086;DHT22;52812;48.960;9.108;2022-10-17T10:41:53;21.60;99.90
3086;DHT22;52812;48.960;9.108;2022-10-17T10:44:23;21.70;99.90
3086;DHT22;52812;48.960;9.108;2022-10-17T10:47:05;21.80;99.90
3086;DHT22;52812;48.960;9.108;2022-10-17T10:49:32;21.90;99.90
3086;DHT22;52812;48.960;9.108;2022-10-17T10:51:59;22.00;99.90
3086;DHT22;52812;48.960;9.108;2022-10-17T10:54:37;22.10;99.90
3086;DHT22;52812;48.960;9.108;2022-10-17T10:57:05;22.20;99.90
3086;DHT22;52812;48.960;9.108;2022-10-17T11:02:29;22.20;99.90
3086;DHT22;52812;48.960;9.108;2022-10-17T11:05:21;22.40;99.90
3086;DHT22;52812;48.960;9.108;2022-10-17T11:07:59;22.50;99.90
3086;DHT22;52812;48.960;9.108;2022-10-17T11:10:55;22.70;99.90
3086;DHT22;52812;48.960;9.108;2022-10-17T11:13:24;22.70;99.90
3086;DHT22;52812;48.960;9.108;2022-10-17T11:18:57;22.70;99.90
3086;DHT22;52812;48.960;9.108;2022-10-17T11:21:40;22.70;99.90
3086;DHT22;52812;48.960;9.108;2022-10-17T11:24:27;22.70;99.90
3086;DHT22;52812;48.960;9.108;2022-10-17T11:27:04;22.80;99.90
3086;DHT22;52812;48.960;9.108;2022-10-17T11:29:33;22.80;99.90
3086;DHT22;52812;48.960;9.108;2022-10-17T11:32:11;22.90;99.90
3086;DHT22;52812;48.960;9.108;2022-10-17T11:34:50;22.80;99.90
3086;DHT22;52812;48.960;9.108;2022-10-17T11:37:23;22.90;99.90
3086;DHT22;52812;48.960;9.108;2022-10-17T11:39:51;22.90;99.90
3086;DHT22;52812;48.960;9.108;2022-10-17T11:42:29;23.00;99.90
3086;DHT22;52812;48.960;9.108;2022-10-17T11:45:04;23.10;99.90
3086;DHT22;52812;48.960;9.108;2022-10-17T11:47:44;23.10;99.90
3086;DHT22;52812;48.960;9.108;2022-10-17T11:50:33;23.00;99.90
3086;DHT22;52812;48.960;9.108;2022-10-17T11:53:04;22.80;99.90
3086;DHT22;52812;48.960;9.108;2022-10-17T11:55:31;22.80;99.90
3086;DHT22;52812;48.960;9.108;2022-10-17T12:12:02;22.90;99.90
3086;DHT22;52812;48.960;9.108;2022-10-17T12:14:46;22.90;99.90
3086;DHT22;52812;48.960;9.108;2022-10-17T12:17:30;23.10;99.90
3086;DHT22;52812;48.960;9.108;2022-10-17T12:22:55;23.10;99.90
3086;DHT22;52812;48.960;9.108;2022-10-17T12:25:27;23.10;99.90
3086;DHT22;52812;48.960;9.108;2022-10-17T12:30:29;23.00;99.90
3086;DHT22;52812;48.960;9.108;2022-10-17T12:35:36;22.90;99.90
3086;DHT22;52812;48.960;9.108;2022-10-17T12:45:45;23.00;99.90
3086;DHT22;52812;48.960;9.108;2022-10-17T12:48:19;23.00;99.90
3086;DHT22;52812;48.960;9.108;2022-10-17T12:51:09;23.00;99.90
3086;DHT22;52812;48.960;9.108;2022-10-17T12:53:40;23.00;99.90
3086;DHT22;52812;48.960;9.108;2022-10-17T12:56:07;23.10;99.90
3086;DHT22;52812;48.960;9.108;2022-10-17T12:58:34;23.10;99.90
3086;DHT22;52812;48.960;9.108;2022-10-17T13:01:00;23.00;99.90
3086;DHT22;52812;48.960;9.108;2022-10-17T13:03:34;23.10;99.90
3086;DHT22;52812;48.960;9.108;2022-10-17T13:06:06;23.00;99.90
3086;DHT22;52812;48.960;9.108;2022-10-17T13:08:38;23.00;99.90
3086;DHT22;52812;48.960;9.108;2022-10-17T13:11:05;23.00;99.90
3086;DHT22;52812;48.960;9.108;2022-10-17T13:13:40;23.00;99.90
3086;DHT22;52812;48.960;9.108;2022-10-17T13:16:07;22.90;99.90
3086;DHT22;52812;48.960;9.108;2022-10-17T13:18:33;23.00;99.90
3086;DHT22;52812;48.960;9.108;2022-10-17T13:21:05;23.00;99.90
3086;DHT22;52812;48.960;9.108;2022-10-17T13:23:36;23.00;99.90
3086;DHT22;52812;48.960;9.108;2022-10-17T13:26:14;23.00;99.90
3086;DHT22;52812;48.960;9.108;2022-10-17T13:28:41;23.10;99.90
3086;DHT22;52812;48.960;9.108;2022-10-17T13:31:26;23.10;99.90
3086;DHT22;52812;48.960;9.108;2022-10-17T13:33:56;23.10;99.90
3086;DHT22;52812;48.960;9.108;2022-10-17T13:36:22;23.10;99.90
3086;DHT22;52812;48.960;9.108;2022-10-17T13:38:48;23.00;99.90
3086;DHT22;52812;48.960;9.108;2022-10-17T13:41:15;23.00;99.90
3086;DHT22;52812;48.960;9.108;2022-10-17T13:43:44;22.90;99.90
3086;DHT22;52812;48.960;9.108;2022-10-17T13:46:30;22.90;99.90
3086;DHT22;52812;48.960;9.108;2022-10-17T13:48:57;22.90;99.90
3086;DHT22;52812;48.960;9.108;2022-10-17T13:51:25;22.80;99.90
3086;DHT22;52812;48.960;9.108;2022-10-17T13:53:51;22.80;99.90
3086;DHT22;52812;48.960;9.108;2022-10-17T13:56:24;22.80;99.90
3086;DHT22;52812;48.960;9.108;2022-10-17T13:58:55;22.70;99.90
3086;DHT22;52812;48.960;9.108;2022-10-17T14:01:22;22.70;99.90
3086;DHT22;52812;48.960;9.108;2022-10-17T14:03:49;22.70;99.90
3086;DHT22;52812;48.960;9.108;2022-10-17T14:08:53;22.50;99.90
3086;DHT22;52812;48.960;9.108;2022-10-17T14:11:39;22.50;99.90
3086;DHT22;52812;48.960;9.108;2022-10-17T14:14:15;22.40;99.90
3086;DHT22;52812;48.960;9.108;2022-10-17T14:16:42;22.20;99.90
3086;DHT22;52812;48.960;9.108;2022-10-17T14:19:29;22.20;99.90
3086;DHT22;52812;48.960;9.108;2022-10-17T14:22:14;22.00;99.90
3086;DHT22;52812;48.960;9.108;2022-10-17T14:24:42;22.00;99.90
3086;DHT22;52812;48.960;9.108;2022-10-17T14:30:02;22.10;99.90
3086;DHT22;52812;48.960;9.108;2022-10-17T14:32:31;22.10;99.90
3086;DHT22;52812;48.960;9.108;2022-10-17T14:34:59;22.00;99.90
3086;DHT22;52812;48.960;9.108;2022-10-17T14:37:41;22.00;99.90
3086;DHT22;52812;48.960;9.108;2022-10-17T14:40:19;22.00;99.90
3086;DHT22;52812;48.960;9.108;2022-10-17T14:42:47;22.00;99.90
3086;DHT22;52812;48.960;9.108;2022-10-17T14:45:33;22.00;99.90
3086;DHT22;52812;48.960;9.108;2022-10-17T14:48:09;22.00;99.90
3086;DHT22;52812;48.960;9.108;2022-10-17T14:50:36;22.10;99.90
3086;DHT22;52812;48.960;9.108;2022-10-17T14:55:54;22.20;99.90
3086;DHT22;52812;48.960;9.108;2022-10-17T14:58:25;22.20;99.90
3086;DHT22;52812;48.960;9.108;2022-10-17T15:00:56;22.10;99.90
3086;DHT22;52812;48.960;9.108;2022-10-17T15:03:22;22.10;99.90
3086;DHT22;52812;48.960;9.108;2022-10-17T15:05:48;22.10;99.90
3086;DHT22;52812;48.960;9.108;2022-10-17T15:08:16;22.10;99.90
3086;DHT22;52812;48.960;9.108;2022-10-17T15:10:43;22.00;99.90
3086;DHT22;52812;48.960;9.108;2022-10-17T15:13:10;21.90;99.90
3086;DHT22;52812;48.960;9.108;2022-10-17T15:15:37;21.90;99.90
3086;DHT22;52812;48.960;9.108;2022-10-17T15:18:04;21.90;99.90
3086;DHT22;52812;48.960;9.108;2022-10-17T15:20:30;21.80;99.90
3086;DHT22;52812;48.960;9.108;2022-10-17T15:22:58;21.80;99.90
3086;DHT22;52812;48.960;9.108;2022-10-17T15:25:25;21.70;99.90
3086;DHT22;52812;48.960;9.108;2022-10-17T15:27:52;21.80;99.90
3086;DHT22;52812;48.960;9.108;2022-10-17T15:32:45;21.70;99.90
3086;DHT22;52812;48.960;9.108;2022-10-17T15:35:11;21.70;99.90
3086;DHT22;52812;48.960;9.108;2022-10-17T15:37:37;21.70;99.90
3086;DHT22;52812;48.960;9.108;2022-10-17T15:40:04;21.60;99.90
3086;DHT22;52812;48.960;9.108;2022-10-17T15:42:30;21.60;99.90
3086;DHT22;52812;48.960;9.108;2022-10-17T15:44:56;21.50;99.90
3086;DHT22;52812;48.960;9.108;2022-10-17T15:47:28;21.50;99.90
3086;DHT22;52812;48.960;9.108;2022-10-17T15:49:55;21.50;99.90
3086;DHT22;52812;48.960;9.108;2022-10-17T15:52:21;21.40;99.90
3086;DHT22;52812;48.960;9.108;2022-10-17T15:54:47;21.40;99.90
3086;DHT22;52812;48.960;9.108;2022-10-17T15:57:24;21.30;99.90
3086;DHT22;52812;48.960;9.108;2022-10-17T15:59:50;21.10;99.90
3086;DHT22;52812;48.960;9.108;2022-10-17T16:02:17;21.10;99.90
3086;DHT22;52812;48.960;9.108;2022-10-17T16:04:44;21.00;99.90
3086;DHT22;52812;48.960;9.108;2022-10-17T16:07:10;20.90;99.90
3086;DHT22;52812;48.960;9.108;2022-10-17T16:09:36;20.80;99.90
3086;DHT22;52812;48.960;9.108;2022-10-17T16:12:03;20.50;99.90
3086;DHT22;52812;48.960;9.108;2022-10-17T16:14:29;20.20;99.90
3086;DHT22;52812;48.960;9.108;2022-10-17T16:16:57;20.10;99.90
3086;DHT22;52812;48.960;9.108;2022-10-17T16:19:24;20.00;99.90
3086;DHT22;52812;48.960;9.108;2022-10-17T16:21:55;19.90;99.90
3086;DHT22;52812;48.960;9.108;2022-10-17T16:24:21;19.80;99.90
3086;DHT22;52812;48.960;9.108;2022-10-17T16:26:47;19.70;99.90
3086;DHT22;52812;48.960;9.108;2022-10-17T16:29:13;19.70;99.90
3086;DHT22;52812;48.960;9.108;2022-10-17T16:31:41;19.60;99.90
3086;DHT22;52812;48.960;9.108;2022-10-17T16:34:08;19.50;99.90
3086;DHT22;52812;48.960;9.108;2022-10-17T16:36:34;19.40;99.90
3086;DHT22;52812;48.960;9.108;2022-10-17T16:39:00;19.30;99.90
3086;DHT22;52812;48.960;9.108;2022-10-17T16:41:29;19.10;99.90
3086;DHT22;52812;48.960;9.108;2022-10-17T16:43:56;19.10;99.90
3086;DHT22;52812;48.960;9.108;2022-10-17T16:46:24;18.90;99.90
3086;DHT22;52812;48.960;9.108;2022-10-17T16:48:49;18.60;99.90
3086;DHT22;52812;48.960;9.108;2022-10-17T16:51:16;18.50;99.90
3086;DHT22;52812;48.960;9.108;2022-10-17T16:53:44;18.40;99.90
3086;DHT22;52812;48.960;9.108;2022-10-17T16:56:12;18.30;99.90
3086;DHT22;52812;48.960;9.108;2022-10-17T16:58:39;18.10;99.90
3086;DHT22;52812;48.960;9.108;2022-10-17T17:01:08;18.10;99.90
3086;DHT22;52812;48.960;9.108;2022-10-17T17:03:38;18.00;99.90
3086;DHT22;52812;48.960;9.108;2022-10-17T17:06:04;17.90;99.90
3086;DHT22;52812;48.960;9.108;2022-10-17T17:08:31;17.80;99.90
3086;DHT22;52812;48.960;9.108;2022-10-17T17:10:57;17.80;99.90
3086;DHT22;52812;48.960;9.108;2022-10-17T17:13:23;17.60;99.90
3086;DHT22;52812;48.960;9.108;2022-10-17T17:15:49;17.60;99.90
3086;DHT22;52812;48.960;9.108;2022-10-17T17:18:20;17.50;99.90
3086;DHT22;52812;48.960;9.108;2022-10-17T17:20:45;17.50;99.90
3086;DHT22;52812;48.960;9.108;2022-10-17T17:23:12;17.40;99.90
3086;DHT22;52812;48.960;9.108;2022-10-17T17:25:37;17.30;99.90
3086;DHT22;52812;48.960;9.108;2022-10-17T17:28:04;17.20;99.90
3086;DHT22;52812;48.960;9.108;2022-10-17T17:30:32;17.20;99.90
3086;DHT22;52812;48.960;9.108;2022-10-17T17:32:58;17.20;99.90
3086;DHT22;52812;48.960;9.108;2022-10-17T17:35:25;17.10;99.90